Dades meteomassalio
Diari Summary for Noviembre 1, 2017 Units:  English    Metric   Both
« Previous Day
Next Day »
Diari Semanal Mensual Anual Personalitzat
  Maxima: Minima: Mijana:
Temperatura: TemperatureC °F 3.3 °F 10.9 °F
Rosada: DewpointC °F 1.7 °F 7.1 °F
Humitat: Humidity % 56 % 78 %
Velocitat del vent: WindSpeedKMH mph 0.0 mph 3.9 mph
Racha vent: WindSpeedGustKMH mph - -
Vent:- - SSW
Pressio: PressurehPa in 1022.2 in -
Pluja: 0.0 in    
Historical Graphs
 
 
Tabular Data for Noviembre 1, 2017
Time Temperature Dew Point Pressure Wind Wind Speed Wind Gust Humidity Rainfall Rate (Hourly) solar Conditions
TemperatureC °F DewpointC °F PressurehPa in Calm     Humidity % HourlyPrecipMM in SolarRadiationWatts/m^2 W/m2 Conditions
00:04 5.6 °F 3.1 °F 1025.6 in Calm     84 % 0.0 in 0.0 W/m2 CLR
00:09 5.6 °F 3.1 °F 1025.6 in Calm     84 % 0.0 in 0.0 W/m2 CLR
00:14 5.6 °F 3.2 °F 1025.3 in Calm     85 % 0.0 in 0.0 W/m2 CLR
00:19 6.1 °F 3.8 °F 1025.3 in Calm     85 % 0.0 in 0.0 W/m2 CLR
00:24 6.1 °F 3.9 °F 1025.3 in Calm     86 % 0.0 in 0.0 W/m2 CLR
00:29 6.1 °F 3.9 °F 1025.3 in Calm     86 % 0.0 in 0.0 W/m2 CLR
00:34 6.1 °F 3.9 °F 1025.3 in Calm     86 % 0.0 in 0.0 W/m2 CLR
00:39 6.1 °F 3.9 °F 1025.3 in Calm     86 % 0.0 in 0.0 W/m2 CLR
00:44 5.6 °F 3.2 °F 1025.3 in Calm     85 % 0.0 in 0.0 W/m2 CLR
00:49 5.6 °F 3.4 °F 1025.3 in Calm     86 % 0.0 in 0.0 W/m2 CLR
00:54 5.6 °F 3.4 °F 1025.3 in Calm     86 % 0.0 in 0.0 W/m2 CLR
00:59 5.6 °F 3.4 °F 1025.3 in Calm     86 % 0.0 in 0.0 W/m2 CLR
01:04 5.6 °F 3.4 °F 1025.3 in Calm     86 % 0.0 in 0.0 W/m2 CLR
01:09 5.0 °F 2.8 °F 1025.3 in Calm     86 % 0.0 in 0.0 W/m2 CLR
01:14 5.0 °F 2.8 °F 1025.3 in Calm     86 % 0.0 in 0.0 W/m2 CLR
01:19 5.0 °F 2.8 °F 1025.3 in Calm     86 % 0.0 in 0.0 W/m2 CLR
01:24 5.0 °F 3.0 °F 1025.3 in Calm     87 % 0.0 in 0.0 W/m2 CLR
01:29 5.0 °F 3.0 °F 1025.3 in Calm     87 % 0.0 in 0.0 W/m2 CLR
01:34 5.0 °F 3.0 °F 1025.3 in Calm     87 % 0.0 in 0.0 W/m2 CLR
01:39 4.4 °F 2.4 °F 1025.3 in Calm     87 % 0.0 in 0.0 W/m2 CLR
01:44 4.4 °F 2.4 °F 1025.3 in Calm     87 % 0.0 in 0.0 W/m2 CLR
01:49 4.4 °F 2.6 °F 1025.3 in Calm     88 % 0.0 in 0.0 W/m2 CLR
01:54 4.4 °F 2.6 °F 1025.3 in Calm     88 % 0.0 in 0.0 W/m2 CLR
01:55 4.4 °F 2.6 °F 1025.3 in Calm     88 % 0.0 in 0.0 W/m2 CLR
02:00 4.4 °F 2.6 °F 1025.3 in Calm     88 % 0.0 in 0.0 W/m2 CLR
02:05 4.4 °F 2.4 °F 1025.3 in Calm     87 % 0.0 in 0.0 W/m2 CLR
02:10 5.0 °F 3.2 °F 1025.3 in Calm     88 % 0.0 in 0.0 W/m2 CLR
02:15 5.0 °F 3.2 °F 1025.3 in Calm     88 % 0.0 in 0.0 W/m2 CLR
02:20 5.0 °F 3.2 °F 1025.3 in Calm     88 % 0.0 in 0.0 W/m2 CLR
02:25 5.0 °F 3.2 °F 1025.3 in Calm     88 % 0.0 in 0.0 W/m2 CLR
02:30 4.4 °F 2.6 °F 1025.3 in Calm     88 % 0.0 in 0.0 W/m2 CLR
02:35 4.4 °F 2.6 °F 1025.3 in Calm     88 % 0.0 in 0.0 W/m2 CLR
02:40 4.4 °F 2.8 °F 1025.3 in Calm     89 % 0.0 in 0.0 W/m2 CLR
02:45 3.9 °F 2.2 °F 1025.3 in Calm     89 % 0.0 in 0.0 W/m2 CLR
02:50 3.9 °F 2.1 °F 1025.3 in Calm     88 % 0.0 in 0.0 W/m2 CLR
02:55 3.9 °F 2.2 °F 1025.3 in Calm     89 % 0.0 in 0.0 W/m2 CLR
03:00 3.9 °F 2.2 °F 1025.3 in Calm     89 % 0.0 in 0.0 W/m2 CLR
03:05 3.9 °F 2.2 °F 1025.3 in Calm     89 % 0.0 in 0.0 W/m2 CLR
03:10 3.9 °F 2.2 °F 1025.3 in Calm     89 % 0.0 in 0.0 W/m2 CLR
03:15 3.9 °F 2.2 °F 1025.3 in Calm     89 % 0.0 in 0.0 W/m2 CLR
03:20 3.9 °F 2.2 °F 1025.3 in Calm     89 % 0.0 in 0.0 W/m2 CLR
03:25 3.3 °F 1.7 °F 1025.3 in Calm     89 % 0.0 in 0.0 W/m2 CLR
03:30 3.3 °F 1.7 °F 1025.3 in Calm     89 % 0.0 in 0.0 W/m2 CLR
03:35 3.3 °F 1.7 °F 1025.3 in Calm     89 % 0.0 in 0.0 W/m2 CLR
03:40 3.3 °F 1.7 °F 1025.3 in Calm     89 % 0.0 in 0.0 W/m2 CLR
03:45 3.3 °F 1.7 °F 1025.3 in Calm     89 % 0.0 in 0.0 W/m2 CLR
03:50 3.3 °F 1.8 °F 1025.3 in Calm     90 % 0.0 in 0.0 W/m2 CLR
03:55 3.3 °F 1.8 °F 1025.3 in Calm     90 % 0.0 in 0.0 W/m2 CLR
04:00 3.3 °F 1.8 °F 1025.3 in Calm     90 % 0.0 in 0.0 W/m2 CLR
04:05 3.3 °F 1.8 °F 1025.3 in Calm     90 % 0.0 in 0.0 W/m2 CLR
04:10 3.9 °F 2.4 °F 1025.3 in Calm     90 % 0.0 in 0.0 W/m2 CLR
04:18 3.9 °F 2.4 °F 1025.3 in Calm     90 % 0.0 in 0.0 W/m2 CLR
04:21 4.4 °F 2.9 °F 1025.3 in Calm     90 % 0.0 in 0.0 W/m2 CLR
04:22 4.4 °F 2.9 °F 1025.3 in Calm     90 % 0.0 in 0.0 W/m2 CLR
04:25 4.4 °F 2.9 °F 1025.3 in Calm     90 % 0.0 in 0.0 W/m2 CLR
04:26 4.4 °F 2.9 °F 1025.3 in Calm     90 % 0.0 in 0.0 W/m2 CLR
04:27 4.4 °F 2.9 °F 1025.3 in Calm     90 % 0.0 in 0.0 W/m2 CLR
04:29 4.4 °F 2.9 °F 1025.3 in Calm     90 % 0.0 in 0.0 W/m2 CLR
04:32 4.4 °F 2.9 °F 1025.3 in Calm     90 % 0.0 in 0.0 W/m2 CLR
04:37 5.0 °F 3.5 °F 1025.3 in Calm     90 % 0.0 in 0.0 W/m2 CLR
04:42 5.0 °F 3.5 °F 1025.3 in Calm     90 % 0.0 in 0.0 W/m2 CLR
04:47 5.0 °F 3.5 °F 1024.9 in Calm     90 % 0.0 in 0.0 W/m2 CLR
04:52 5.0 °F 3.5 °F 1025.3 in Calm     90 % 0.0 in 0.0 W/m2 CLR
04:57 5.0 °F 3.5 °F 1024.9 in Calm     90 % 0.0 in 0.0 W/m2 CLR
05:02 5.6 °F 4.1 °F 1025.3 in Calm     90 % 0.0 in 0.0 W/m2 CLR
05:07 5.6 °F 4.1 °F 1024.9 in Calm     90 % 0.0 in 0.0 W/m2 CLR
05:12 5.6 °F 4.1 °F 1024.9 in Calm     90 % 0.0 in 0.0 W/m2 CLR
05:17 5.6 °F 3.9 °F 1024.9 in Calm     89 % 0.0 in 0.0 W/m2 CLR
05:22 5.6 °F 3.9 °F 1024.9 in Calm     89 % 0.0 in 0.0 W/m2 CLR
05:27 5.6 °F 3.9 °F 1024.9 in Calm     89 % 0.0 in 0.0 W/m2 CLR
05:32 5.6 °F 3.9 °F 1024.9 in Calm     89 % 0.0 in 0.0 W/m2 CLR
05:37 5.6 °F 3.9 °F 1024.9 in Calm     89 % 0.0 in 0.0 W/m2 CLR
05:42 5.6 °F 3.9 °F 1024.9 in Calm     89 % 0.0 in 0.0 W/m2 CLR
05:47 5.6 °F 3.9 °F 1024.9 in Calm     89 % 0.0 in 0.0 W/m2 CLR
05:52 5.6 °F 3.9 °F 1024.9 in Calm     89 % 0.0 in 0.0 W/m2 CLR
05:57 5.6 °F 3.9 °F 1024.9 in Calm     89 % 0.0 in 0.0 W/m2 CLR
06:02 5.6 °F 3.9 °F 1024.9 in Calm     89 % 0.0 in 0.0 W/m2 CLR
06:07 5.6 °F 3.9 °F 1024.9 in Calm     89 % 0.0 in 0.0 W/m2 CLR
06:12 5.6 °F 3.9 °F 1024.6 in Calm     89 % 0.0 in 0.0 W/m2 CLR
06:17 5.6 °F 3.9 °F 1024.6 in Calm     89 % 0.0 in 0.0 W/m2 CLR
06:22 5.6 °F 3.9 °F 1024.9 in Calm     89 % 0.0 in 0.0 W/m2 CLR
06:27 5.6 °F 3.9 °F 1024.6 in Calm     89 % 0.0 in 0.0 W/m2 CLR
06:32 5.6 °F 3.9 °F 1024.6 in Calm     89 % 0.0 in 0.0 W/m2 CLR
06:37 5.6 °F 3.9 °F 1024.6 in Calm     89 % 0.0 in 0.0 W/m2 CLR
06:42 5.6 °F 3.9 °F 1024.9 in Calm     89 % 0.0 in 0.0 W/m2 CLR
06:47 5.6 °F 3.9 °F 1024.9 in Calm     89 % 0.0 in 0.0 W/m2 CLR
06:52 5.6 °F 3.9 °F 1024.9 in Calm     89 % 0.0 in 0.0 W/m2 CLR
06:57 5.6 °F 3.9 °F 1024.9 in Calm     89 % 0.0 in 0.0 W/m2 CLR
07:02 5.6 °F 3.9 °F 1024.9 in Calm     89 % 0.0 in 0.0 W/m2 CLR
07:07 5.6 °F 3.9 °F 1024.9 in Calm     89 % 0.0 in 0.0 W/m2 CLR
07:12 5.6 °F 3.7 °F 1024.9 in Calm     88 % 0.0 in 0.0 W/m2 CLR
07:17 5.6 °F 3.9 °F 1024.9 in Calm     89 % 0.0 in 0.0 W/m2 CLR
07:22 5.6 °F 3.9 °F 1024.9 in Calm     89 % 0.0 in 0.0 W/m2 OVC
07:27 5.6 °F 3.9 °F 1025.3 in Calm     89 % 0.0 in 0.0 W/m2 OVC
07:32 5.6 °F 3.9 °F 1025.3 in Calm     89 % 0.0 in 5.0 W/m2 OVC
07:37 5.0 °F 3.5 °F 1025.3 in Calm     90 % 0.0 in 9.0 W/m2 OVC
07:40 5.0 °F 3.5 °F 1025.3 in Calm     90 % 0.0 in 11.0 W/m2 OVC
07:45 5.0 °F 3.3 °F 1025.3 in Calm     89 % 0.0 in 14.0 W/m2 OVC
07:50 5.0 °F 3.3 °F 1025.6 in Calm     89 % 0.0 in 21.0 W/m2 OVC
07:55 5.0 °F 3.3 °F 1025.6 in Calm     89 % 0.0 in 25.0 W/m2 OVC
08:00 5.0 °F 3.3 °F 1025.6 in Calm     89 % 0.0 in 30.0 W/m2 OVC
08:05 5.0 °F 3.5 °F 1025.6 in Calm     90 % 0.0 in 33.0 W/m2 OVC
08:10 5.0 °F 3.3 °F 1025.6 in Calm     89 % 0.0 in 37.0 W/m2 OVC
08:15 5.0 °F 3.3 °F 1025.6 in Calm     89 % 0.0 in 51.0 W/m2 OVC
08:20 5.0 °F 3.5 °F 1026.0 in Calm     90 % 0.0 in 67.0 W/m2 OVC
08:25 5.6 °F 4.1 °F 1026.0 in Calm     90 % 0.0 in 91.0 W/m2 OVC
08:30 5.6 °F 3.9 °F 1026.0 in Calm     89 % 0.0 in 111.0 W/m2 OVC
08:35 5.6 °F 3.7 °F 1026.0 in Calm     88 % 0.0 in 120.0 W/m2 BKN
08:40 6.1 °F 4.3 °F 1026.0 in Calm     88 % 0.0 in 125.0 W/m2 FEW
08:45 6.7 °F 4.8 °F 1026.3 in Calm     88 % 0.0 in 130.0 W/m2 CLR
08:50 6.7 °F 4.8 °F 1026.3 in Calm     88 % 0.0 in 149.0 W/m2 CLR
08:55 7.2 °F 5.2 °F 1026.3 in Calm     87 % 0.0 in 169.0 W/m2 CLR
09:00 7.2 °F 5.1 °F 1026.3 in Calm     86 % 0.0 in 107.0 W/m2 CLR
09:05 7.8 °F 5.2 °F 1026.3 in Calm     84 % 0.0 in 200.0 W/m2 CLR
09:10 7.8 °F 5.1 °F 1026.3 in Calm     83 % 0.0 in 214.0 W/m2 CLR
09:15 7.8 °F 4.9 °F 1026.3 in Calm     82 % 0.0 in 230.0 W/m2 CLR
09:16 7.8 °F 4.9 °F 1026.3 in Calm     82 % 0.0 in 229.0 W/m2 CLR
09:21 8.3 °F 5.3 °F 1026.3 in Calm     81 % 0.0 in 246.0 W/m2 CLR
09:26 8.3 °F 5.3 °F 1026.3 in Calm     81 % 0.0 in 262.0 W/m2 CLR
09:31 8.9 °F 5.8 °F 1026.3 in Calm     81 % 0.0 in 272.0 W/m2 CLR
09:36 8.9 °F 5.4 °F 1026.3 in Calm     79 % 0.0 in 287.0 W/m2 CLR
09:41 9.4 °F 6.2 °F 1026.3 in Calm     80 % 0.0 in 295.0 W/m2 CLR
09:46 9.4 °F 6.0 °F 1026.3 in Calm     79 % 0.0 in 306.0 W/m2 CLR
09:51 10.6 °F 7.1 °F 1026.3 in Calm     79 % 0.0 in 318.0 W/m2 CLR
09:56 11.1 °F 7.4 °F 1026.3 in Calm     78 % 0.0 in 334.0 W/m2 CLR
10:01 11.7 °F 7.8 °F 1026.3 in Calm     77 % 0.0 in 345.0 W/m2 CLR
10:06 11.7 °F 7.8 °F 1026.3 in Calm     77 % 0.0 in 352.0 W/m2 CLR
10:11 12.2 °F 7.9 °F 1026.3 in Calm     75 % 0.0 in 366.0 W/m2 CLR
10:16 12.8 °F 8.4 °F 1026.0 in Calm     75 % 0.0 in 369.0 W/m2 CLR
10:21 12.8 °F 8.4 °F 1026.0 in Calm     75 % 0.0 in 374.0 W/m2 CLR
10:26 13.3 °F 9.0 °F 1026.0 in Calm     75 % 0.0 in 392.0 W/m2 CLR
10:31 13.3 °F 8.8 °F 1026.0 in Calm     74 % 0.0 in 403.0 W/m2 CLR
10:36 13.9 °F 9.3 °F 1026.0 in Calm     74 % 0.0 in 420.0 W/m2 CLR
10:41 13.9 °F 9.1 °F 1026.0 in Calm     73 % 0.0 in 432.0 W/m2 CLR
10:46 14.4 °F 9.7 °F 1026.0 in Calm     73 % 0.0 in 438.0 W/m2 CLR
10:51 15.0 °F 10.2 °F 1025.6 in Calm     73 % 0.0 in 448.0 W/m2 CLR
10:56 15.0 °F 10.0 °F 1025.6 in Calm     72 % 0.0 in 455.0 W/m2 CLR
11:01 15.6 °F 10.3 °F 1025.6 in Calm     71 % 0.0 in 466.0 W/m2 CLR
11:06 15.6 °F 10.3 °F 1025.6 in Calm     71 % 0.0 in 471.0 W/m2 CLR
11:11 16.1 °F 10.8 °F 1025.6 in Calm     71 % 0.0 in 469.0 W/m2 CLR
11:16 16.1 °F 10.8 °F 1025.6 in Calm     71 % 0.0 in 473.0 W/m2 CLR
11:21 16.7 °F 11.2 °F 1025.6 in North 5.6 mph 5.6 mph 70 % 0.0 in 494.0 W/m2 CLR
11:26 16.7 °F 11.2 °F 1025.6 in North 9.7 mph 9.7 mph 70 % 0.0 in 499.0 W/m2 CLR
11:31 16.7 °F 11.2 °F 1025.6 in NW 9.3 mph 9.3 mph 70 % 0.0 in 503.0 W/m2 CLR
11:36 16.7 °F 11.4 °F 1025.6 in NW 6.4 mph 6.4 mph 71 % 0.0 in 510.0 W/m2 CLR
11:41 17.2 °F 11.9 °F 1025.6 in NNW 8.0 mph 8.0 mph 71 % 0.0 in 515.0 W/m2 CLR
11:47 17.2 °F 11.9 °F 1025.3 in NW 5.6 mph 5.6 mph 71 % 0.0 in 520.0 W/m2 CLR
11:52 17.2 °F 11.9 °F 1025.3 in NNW 6.4 mph 6.4 mph 71 % 0.0 in 524.0 W/m2 CLR
11:57 17.2 °F 11.7 °F 1025.3 in NNW 8.0 mph 8.0 mph 70 % 0.0 in 527.0 W/m2 CLR
12:02 17.2 °F 11.7 °F 1025.3 in NNW 7.4 mph 7.4 mph 70 % 0.0 in 533.0 W/m2 CLR
12:07 17.8 °F 12.2 °F 1025.3 in North 7.4 mph 7.4 mph 70 % 0.0 in 536.0 W/m2 CLR
12:12 18.3 °F 12.6 °F 1024.9 in NNW 5.6 mph 5.6 mph 69 % 0.0 in 538.0 W/m2 CLR
12:17 18.3 °F 12.3 °F 1024.9 in NNW 7.4 mph 7.4 mph 68 % 0.0 in 543.0 W/m2 CLR
12:22 18.3 °F 12.1 °F 1024.9 in NNW 7.4 mph 7.4 mph 67 % 0.0 in 541.0 W/m2 CLR
12:27 18.3 °F 12.1 °F 1024.6 in NNW 5.6 mph 5.6 mph 67 % 0.0 in 545.0 W/m2 CLR
12:32 18.3 °F 12.1 °F 1024.6 in NW 5.6 mph 5.6 mph 67 % 0.0 in 547.0 W/m2 CLR
12:42 18.9 °F 12.4 °F 1024.6 in WNW 7.4 mph 7.4 mph 66 % 0.0 in 548.0 W/m2 CLR
12:47 18.9 °F 12.2 °F 1024.6 in North 13.0 mph 13.0 mph 65 % 0.0 in 547.0 W/m2 CLR
12:52 19.4 °F 12.7 °F 1024.3 in North 13.0 mph 13.0 mph 65 % 0.0 in 548.0 W/m2 CLR
12:57 19.4 °F 12.4 °F 1024.3 in WNW 9.3 mph 9.3 mph 64 % 0.0 in 547.0 W/m2 CLR
13:02 19.4 °F 12.4 °F 1024.3 in WNW 14.8 mph 14.8 mph 64 % 0.0 in 545.0 W/m2 CLR
13:07 19.4 °F 12.2 °F 1024.3 in NW 5.6 mph 5.6 mph 63 % 0.0 in 543.0 W/m2 CLR
13:12 19.4 °F 11.9 °F 1023.9 in NW 14.8 mph 14.8 mph 62 % 0.0 in 543.0 W/m2 CLR
13:17 20.0 °F 12.5 °F 1023.9 in WNW 11.1 mph 11.1 mph 62 % 0.0 in 540.0 W/m2 CLR
13:22 20.0 °F 12.2 °F 1023.9 in NNW 5.6 mph   61 % 0.0 in 540.0 W/m2 CLR
13:27 20.0 °F 12.0 °F 1023.9 in NNW 6.4 mph 6.4 mph 60 % 0.0 in 540.0 W/m2 CLR
13:32 20.0 °F 12.0 °F 1023.9 in NNW 7.4 mph 7.4 mph 60 % 0.0 in 536.0 W/m2 CLR
13:37 20.0 °F 12.0 °F 1023.6 in NW 5.6 mph 5.6 mph 60 % 0.0 in 529.0 W/m2 CLR
13:42 20.6 °F 12.8 °F 1023.6 in NW 9.7 mph 9.7 mph 61 % 0.0 in 527.0 W/m2 CLR
13:47 20.6 °F 12.0 °F 1023.6 in NW 16.7 mph 16.7 mph 58 % 0.0 in 519.0 W/m2 CLR
13:52 20.6 °F 12.0 °F 1023.6 in NW 1.9 mph 1.9 mph 58 % 0.0 in 503.0 W/m2 CLR
13:57 20.6 °F 11.7 °F 1023.6 in North 14.5 mph 14.5 mph 57 % 0.0 in 482.0 W/m2 CLR
14:02 20.6 °F 11.7 °F 1023.6 in NW 16.7 mph 16.7 mph 57 % 0.0 in 499.0 W/m2 CLR
14:07 20.6 °F 11.7 °F 1023.2 in NNW 9.7 mph 9.7 mph 57 % 0.0 in 483.0 W/m2 CLR
14:12 20.6 °F 11.7 °F 1023.2 in North 8.0 mph 8.0 mph 57 % 0.0 in 485.0 W/m2 CLR
14:17 20.6 °F 11.4 °F 1023.2 in West 6.4 mph 6.4 mph 56 % 0.0 in 471.0 W/m2 CLR
14:22 20.6 °F 11.4 °F 1023.2 in NW 14.8 mph 14.8 mph 56 % 0.0 in 441.0 W/m2 CLR
14:27 21.1 °F 12.0 °F 1022.9 in North 3.7 mph 3.7 mph 56 % 0.0 in 443.0 W/m2 CLR
14:32 20.6 °F 11.4 °F 1022.9 in NNW 3.7 mph   56 % 0.0 in 431.0 W/m2 CLR
14:37 21.1 °F 12.0 °F 1022.9 in NW 13.0 mph 13.0 mph 56 % 0.0 in 438.0 W/m2 CLR
14:42 21.1 °F 12.0 °F 1022.6 in NNW 14.8 mph 14.8 mph 56 % 0.0 in 459.0 W/m2 CLR
14:47 20.6 °F 11.4 °F 1022.6 in NW 13.0 mph 13.0 mph 56 % 0.0 in 415.0 W/m2 CLR
14:52 20.6 °F 11.7 °F 1022.6 in NNW 14.8 mph 14.8 mph 57 % 0.0 in 413.0 W/m2 CLR
14:57 20.6 °F 11.7 °F 1022.6 in NW 7.4 mph 7.4 mph 57 % 0.0 in 396.0 W/m2 CLR
15:02 20.6 °F 11.7 °F 1022.6 in NW 14.8 mph 14.8 mph 57 % 0.0 in 359.0 W/m2 CLR
15:07 21.1 °F 12.3 °F 1022.6 in North 13.0 mph 13.0 mph 57 % 0.0 in 309.0 W/m2 CLR
15:12 20.6 °F 11.7 °F 1022.6 in Calm     57 % 0.0 in 255.0 W/m2 CLR
15:17 20.6 °F 12.0 °F 1022.6 in NNE 13.0 mph 13.0 mph 58 % 0.0 in 267.0 W/m2 CLR
15:22 20.6 °F 12.3 °F 1022.2 in North 9.7 mph 9.7 mph 59 % 0.0 in 241.0 W/m2 CLR
15:27 20.6 °F 12.3 °F 1022.2 in North 3.7 mph   59 % 0.0 in 306.0 W/m2 CLR
15:32 20.6 °F 12.3 °F 1022.2 in North 13.0 mph 13.0 mph 59 % 0.0 in 294.0 W/m2 CLR
15:37 20.6 °F 12.0 °F 1022.2 in North 7.4 mph 7.4 mph 58 % 0.0 in 221.0 W/m2 CLR
15:42 20.6 °F 12.3 °F 1022.2 in Calm     59 % 0.0 in 355.0 W/m2 CLR
15:47 21.1 °F 12.8 °F 1022.2 in NE 7.4 mph 7.4 mph 59 % 0.0 in 334.0 W/m2 CLR
15:52 21.1 °F 12.8 °F 1022.2 in NNE 9.3 mph 9.3 mph 59 % 0.0 in 306.0 W/m2 CLR
15:57 21.1 °F 12.8 °F 1022.2 in NNE 12.9 mph 12.9 mph 59 % 0.0 in 297.0 W/m2 CLR
16:02 20.6 °F 12.3 °F 1022.2 in NNE 18.5 mph 18.5 mph 59 % 0.0 in 281.0 W/m2 CLR
16:07 20.6 °F 12.5 °F 1022.2 in North 9.3 mph 9.3 mph 60 % 0.0 in 264.0 W/m2 CLR
16:12 20.6 °F 12.5 °F 1022.2 in NNW 13.0 mph 13.0 mph 60 % 0.0 in 239.0 W/m2 CLR
16:17 20.6 °F 12.8 °F 1022.2 in NNE 11.1 mph 11.1 mph 61 % 0.0 in 221.0 W/m2 CLR
16:22 20.0 °F 12.2 °F 1022.2 in North 14.8 mph 14.8 mph 61 % 0.0 in 195.0 W/m2 CLR
16:27 20.0 °F 12.5 °F 1022.2 in NE 11.3 mph 11.3 mph 62 % 0.0 in 190.0 W/m2 CLR
16:32 20.0 °F 12.0 °F 1022.2 in NE 20.4 mph 20.4 mph 60 % 0.0 in 178.0 W/m2 CLR
16:37 19.4 °F 11.5 °F 1022.2 in ENE 18.5 mph 18.5 mph 60 % 0.0 in 156.0 W/m2 CLR
16:42 19.4 °F 11.7 °F 1022.2 in NE 16.7 mph 16.7 mph 61 % 0.0 in 142.0 W/m2 CLR
16:47 19.4 °F 11.7 °F 1022.2 in NE 18.5 mph 18.5 mph 61 % 0.0 in 127.0 W/m2 CLR
16:52 18.9 °F 11.4 °F 1022.2 in NE 16.7 mph 16.7 mph 62 % 0.0 in 105.0 W/m2 CLR
16:57 18.9 °F 11.7 °F 1022.2 in NE 14.8 mph 14.8 mph 63 % 0.0 in 95.0 W/m2 CLR
17:02 18.9 °F 11.9 °F 1022.2 in NE 16.7 mph 16.7 mph 64 % 0.0 in 77.0 W/m2 FEW
17:07 18.3 °F 11.6 °F 1022.2 in ENE 22.5 mph 22.5 mph 65 % 0.0 in 58.0 W/m2 SCT
17:12 18.3 °F 11.9 °F 1022.2 in ENE 20.4 mph 20.4 mph 66 % 0.0 in 47.0 W/m2 SCT
17:13 18.3 °F 11.9 °F 1022.2 in ENE 20.4 mph 20.4 mph 66 % 0.0 in 47.0 W/m2 SCT
17:18 18.3 °F 11.9 °F 1022.6 in ENE 16.7 mph 16.7 mph 66 % 0.0 in 39.0 W/m2 BKN
17:23 18.3 °F 12.1 °F 1022.6 in NE 19.3 mph 19.3 mph 67 % 0.0 in 28.0 W/m2 BKN
17:28 17.8 °F 11.6 °F 1022.6 in ENE 16.7 mph 16.7 mph 67 % 0.0 in 21.0 W/m2 BKN
17:33 17.8 °F 11.6 °F 1022.6 in ENE 13.0 mph 13.0 mph 67 % 0.0 in 18.0 W/m2 BKN
17:38 17.2 °F 11.3 °F 1022.6 in ENE 7.4 mph 7.4 mph 68 % 0.0 in 16.0 W/m2 BKN
17:43 17.2 °F 11.5 °F 1022.6 in ENE 14.8 mph 14.8 mph 69 % 0.0 in 11.0 W/m2 BKN
17:48 16.7 °F 10.9 °F 1022.6 in ENE 7.4 mph 7.4 mph 69 % 0.0 in 7.0 W/m2 BKN
17:53 16.7 °F 11.2 °F 1022.6 in Calm     70 % 0.0 in 0.0 W/m2 OVC
17:58 16.7 °F 11.4 °F 1022.6 in ENE 11.1 mph 11.1 mph 71 % 0.0 in 0.0 W/m2 OVC
18:03 16.1 °F 11.1 °F 1022.6 in NE 11.1 mph 11.1 mph 72 % 0.0 in 0.0 W/m2 CLR
18:08 15.6 °F 10.5 °F 1022.9 in ENE 14.8 mph 14.8 mph 72 % 0.0 in 0.0 W/m2 CLR
18:13 15.6 °F 10.7 °F 1022.9 in NE 13.0 mph 13.0 mph 73 % 0.0 in 0.0 W/m2 CLR
18:18 15.6 °F 10.7 °F 1022.9 in ENE 9.3 mph 9.3 mph 73 % 0.0 in 0.0 W/m2 CLR
18:23 15.6 °F 10.9 °F 1022.9 in ENE 14.8 mph 14.8 mph 74 % 0.0 in 0.0 W/m2 CLR
18:28 15.0 °F 10.4 °F 1022.9 in ENE 13.0 mph 13.0 mph 74 % 0.0 in 0.0 W/m2 CLR
18:33 15.0 °F 10.6 °F 1022.9 in ENE 13.0 mph 13.0 mph 75 % 0.0 in 0.0 W/m2 CLR
18:38 15.0 °F 10.8 °F 1022.9 in East 16.7 mph 16.7 mph 76 % 0.0 in 0.0 W/m2 CLR
18:43 15.0 °F 10.8 °F 1022.9 in ENE 5.6 mph   76 % 0.0 in 0.0 W/m2 CLR
18:48 15.0 °F 10.8 °F 1023.2 in East 11.1 mph 11.1 mph 76 % 0.0 in 0.0 W/m2 CLR
18:53 14.4 °F 10.4 °F 1023.2 in Calm     77 % 0.0 in 0.0 W/m2 CLR
18:58 14.4 °F 10.4 °F 1023.2 in Calm     77 % 0.0 in 0.0 W/m2 CLR
19:03 13.9 °F 10.1 °F 1023.2 in Calm     78 % 0.0 in 0.0 W/m2 CLR
19:04 13.9 °F 10.1 °F 1023.2 in Calm     78 % 0.0 in 0.0 W/m2 CLR
19:09 13.9 °F 10.1 °F 1023.2 in Calm     78 % 0.0 in 0.0 W/m2 CLR
19:14 13.3 °F 9.6 °F 1023.2 in Calm     78 % 0.0 in 0.0 W/m2 CLR
19:19 13.3 °F 9.8 °F 1023.2 in Calm     79 % 0.0 in 0.0 W/m2 CLR
19:24 12.8 °F 9.2 °F 1023.2 in Calm     79 % 0.0 in 0.0 W/m2 CLR
19:29 12.2 °F 8.7 °F 1023.2 in Calm     79 % 0.0 in 0.0 W/m2 CLR
19:35 12.2 °F 8.7 °F 1023.2 in Calm     79 % 0.0 in 0.0 W/m2 CLR
19:40 11.7 °F 8.2 °F 1023.2 in Calm     79 % 0.0 in 0.0 W/m2 CLR
19:45 11.7 °F 8.2 °F 1023.6 in Calm     79 % 0.0 in 0.0 W/m2 CLR
19:50 11.1 °F 7.6 °F 1023.6 in Calm     79 % 0.0 in 0.0 W/m2 CLR
19:55 11.1 °F 7.8 °F 1023.6 in Calm     80 % 0.0 in 0.0 W/m2 CLR
20:00 11.1 °F 7.9 °F 1023.6 in Calm     81 % 0.0 in 0.0 W/m2 CLR
20:05 11.1 °F 7.9 °F 1023.6 in Calm     81 % 0.0 in 0.0 W/m2 CLR
20:10 10.6 °F 7.4 °F 1023.6 in Calm     81 % 0.0 in 0.0 W/m2 CLR
20:15 10.6 °F 7.4 °F 1023.6 in Calm     81 % 0.0 in 0.0 W/m2 CLR
20:20 10.6 °F 7.4 °F 1023.2 in Calm     81 % 0.0 in 0.0 W/m2 CLR
20:25 10.6 °F 7.6 °F 1023.2 in East 12.9 mph 12.9 mph 82 % 0.0 in 0.0 W/m2 CLR
20:30 10.0 °F 6.9 °F 1023.6 in ENE 14.8 mph 14.8 mph 81 % 0.0 in 0.0 W/m2 CLR
20:35 10.0 °F 6.9 °F 1023.2 in ENE 7.4 mph 7.4 mph 81 % 0.0 in 0.0 W/m2 CLR
20:40 10.0 °F 6.7 °F 1023.2 in ENE 11.1 mph 11.1 mph 80 % 0.0 in 0.0 W/m2 CLR
20:45 10.0 °F 6.7 °F 1023.2 in ENE 14.8 mph 14.8 mph 80 % 0.0 in 0.0 W/m2 CLR
20:50 9.4 °F 6.2 °F 1023.2 in East 13.0 mph 13.0 mph 80 % 0.0 in 0.0 W/m2 CLR
20:55 9.4 °F 6.0 °F 1023.6 in East 11.3 mph 11.3 mph 79 % 0.0 in 0.0 W/m2 CLR
21:00 9.4 °F 6.0 °F 1023.6 in East 14.8 mph 14.8 mph 79 % 0.0 in 0.0 W/m2 CLR
21:05 9.4 °F 6.0 °F 1023.6 in East 16.1 mph 16.1 mph 79 % 0.0 in 0.0 W/m2 CLR
21:10 9.4 °F 6.2 °F 1023.6 in East 14.8 mph 14.8 mph 80 % 0.0 in 0.0 W/m2 CLR
21:15 9.4 °F 6.2 °F 1023.6 in East 14.8 mph 14.8 mph 80 % 0.0 in 0.0 W/m2 CLR
21:20 9.4 °F 6.2 °F 1023.6 in East 5.6 mph   80 % 0.0 in 0.0 W/m2 CLR
21:25 9.4 °F 6.2 °F 1023.6 in Calm     80 % 0.0 in 0.0 W/m2 CLR
21:30 9.4 °F 6.2 °F 1023.6 in Calm     80 % 0.0 in 0.0 W/m2 CLR
21:35 9.4 °F 6.2 °F 1023.6 in Calm     80 % 0.0 in 0.0 W/m2 CLR
21:40 9.4 °F 6.3 °F 1023.6 in Calm     81 % 0.0 in 0.0 W/m2 CLR
21:45 9.4 °F 6.3 °F 1023.6 in Calm     81 % 0.0 in 0.0 W/m2 CLR
21:50 9.4 °F 6.5 °F 1023.6 in Calm     82 % 0.0 in 0.0 W/m2 CLR
21:55 9.4 °F 6.5 °F 1023.9 in Calm     82 % 0.0 in 0.0 W/m2 CLR
22:00 9.4 °F 6.5 °F 1023.9 in Calm     82 % 0.0 in 0.0 W/m2 CLR
22:06 9.4 °F 6.3 °F 1023.9 in Calm     81 % 0.0 in 0.0 W/m2 CLR
22:11 9.4 °F 6.5 °F 1023.9 in Calm     82 % 0.0 in 0.0 W/m2 CLR
22:16 9.4 °F 6.7 °F 1023.9 in Calm     83 % 0.0 in 0.0 W/m2 CLR
22:21 9.4 °F 6.9 °F 1023.9 in Calm     84 % 0.0 in 0.0 W/m2 CLR
22:26 9.4 °F 7.1 °F 1023.9 in Calm     85 % 0.0 in 0.0 W/m2 CLR
22:31 9.4 °F 6.9 °F 1023.9 in Calm     84 % 0.0 in 0.0 W/m2 CLR
22:36 9.4 °F 6.9 °F 1023.9 in Calm     84 % 0.0 in 0.0 W/m2 CLR
22:41 9.4 °F 7.1 °F 1023.9 in Calm     85 % 0.0 in 0.0 W/m2 CLR
22:46 9.4 °F 7.1 °F 1023.9 in Calm     85 % 0.0 in 0.0 W/m2 CLR
22:51 8.9 °F 6.5 °F 1023.9 in Calm     85 % 0.0 in 0.0 W/m2 CLR
22:56 8.9 °F 6.5 °F 1023.9 in Calm     85 % 0.0 in 0.0 W/m2 CLR
23:01 8.3 °F 5.9 °F 1023.9 in Calm     85 % 0.0 in 0.0 W/m2 CLR
23:06 8.9 °F 6.7 °F 1023.9 in Calm     86 % 0.0 in 0.0 W/m2 CLR
23:11 8.3 °F 6.3 °F 1023.9 in Calm     87 % 0.0 in 0.0 W/m2 CLR
23:16 8.3 °F 6.1 °F 1023.9 in Calm     86 % 0.0 in 0.0 W/m2 CLR
23:21 7.8 °F 5.7 °F 1023.9 in Calm     87 % 0.0 in 0.0 W/m2 CLR
23:26 7.8 °F 5.7 °F 1023.9 in Calm     87 % 0.0 in 0.0 W/m2 CLR
23:31 7.8 °F 5.7 °F 1023.9 in Calm     87 % 0.0 in 0.0 W/m2 CLR
23:36 7.8 °F 5.7 °F 1023.9 in Calm     87 % 0.0 in 0.0 W/m2 CLR
23:41 7.2 °F 5.2 °F 1023.9 in Calm     87 % 0.0 in 0.0 W/m2 CLR
23:46 7.2 °F 5.2 °F 1023.9 in Calm     87 % 0.0 in 0.0 W/m2 CLR
23:51 7.2 °F 5.2 °F 1023.6 in Calm     87 % 0.0 in 0.0 W/m2 CLR
23:56 7.2 °F 5.2 °F 1023.6 in Calm     87 % 0.0 in 0.0 W/m2 CLR
Lo Temps de Massalio
Compliments of Weather Underground - 1.25 mb